createdAt,value
2023-05-16T00:01:52.746Z,16.60
2023-05-16T00:04:54.481Z,17.35
2023-05-16T00:07:56.124Z,13.30
2023-05-16T00:10:57.713Z,10.57
2023-05-16T00:13:59.384Z,11.43
2023-05-16T00:17:01.241Z,10.07
2023-05-16T00:20:10.984Z,11.20
2023-05-16T00:23:12.888Z,8.15
2023-05-16T00:26:14.507Z,10.02
2023-05-16T00:29:17.110Z,11.82
2023-05-16T00:32:19.034Z,8.63
2023-05-16T00:35:20.756Z,10.20
2023-05-16T00:38:22.422Z,7.38
2023-05-16T00:41:24.087Z,5.90
2023-05-16T00:44:25.915Z,7.88
2023-05-16T00:47:27.590Z,8.75
2023-05-16T00:50:29.687Z,9.27
2023-05-16T00:53:31.477Z,7.50
2023-05-16T00:56:34.571Z,10.38
2023-05-16T00:59:36.362Z,10.90
2023-05-16T01:02:38.483Z,8.60
2023-05-16T01:05:40.791Z,11.80
2023-05-16T01:08:42.435Z,18.65
2023-05-16T01:11:57.086Z,9.70
2023-05-16T01:15:14.156Z,10.00
2023-05-16T01:18:56.672Z,6.93
2023-05-16T01:22:05.578Z,9.82
2023-05-16T01:25:39.348Z,13.15
2023-05-16T01:28:42.086Z,14.27
2023-05-16T01:31:43.704Z,10.95
2023-05-16T01:34:45.682Z,15.07
2023-05-16T01:38:00.142Z,14.38
2023-05-16T01:41:13.195Z,13.00
2023-05-16T01:44:37.932Z,14.65
2023-05-16T01:47:43.858Z,15.30
2023-05-16T01:50:49.961Z,18.92
2023-05-16T01:53:55.144Z,19.52
2023-05-16T01:56:56.922Z,15.55
2023-05-16T01:59:59.099Z,17.55
2023-05-16T02:03:00.783Z,24.52
2023-05-16T02:06:02.413Z,18.83
2023-05-16T02:09:04.007Z,19.38
2023-05-16T02:12:06.020Z,13.27
2023-05-16T02:15:08.319Z,23.40
2023-05-16T02:18:09.914Z,25.73
2023-05-16T02:21:11.754Z,21.13
2023-05-16T02:24:13.294Z,22.48
2023-05-16T02:27:14.925Z,23.23
2023-05-16T02:30:16.520Z,24.20
2023-05-16T02:33:18.066Z,26.10
2023-05-16T02:36:19.652Z,19.90
2023-05-16T02:39:21.223Z,18.42
2023-05-16T02:42:22.766Z,24.33
2023-05-16T02:45:24.457Z,23.23
2023-05-16T02:48:26.096Z,26.33
2023-05-16T02:51:28.473Z,29.30
2023-05-16T02:54:30.146Z,27.95
2023-05-16T02:57:31.681Z,25.13
2023-05-16T03:00:33.424Z,27.27
2023-05-16T03:03:37.536Z,23.67
2023-05-16T03:06:39.226Z,22.65
2023-05-16T03:09:40.833Z,29.70
2023-05-16T03:12:42.665Z,25.55
2023-05-16T03:15:45.726Z,29.08
2023-05-16T03:18:47.644Z,32.42
2023-05-16T03:21:49.252Z,28.55
2023-05-16T03:24:50.967Z,26.42
2023-05-16T03:27:52.667Z,26.33
2023-05-16T03:30:54.285Z,33.10
2023-05-16T03:33:55.896Z,29.23
2023-05-16T03:36:57.637Z,28.75
2023-05-16T03:39:59.450Z,25.95
2023-05-16T03:43:01.011Z,23.85
2023-05-16T03:46:02.635Z,29.15
2023-05-16T03:49:04.467Z,21.23
2023-05-16T03:52:06.421Z,16.90
2023-05-16T03:55:09.169Z,30.13
2023-05-16T03:58:11.597Z,30.67
2023-05-16T04:01:13.156Z,28.02
2023-05-16T04:04:14.696Z,25.48
2023-05-16T04:07:16.370Z,22.52
2023-05-16T04:10:17.926Z,29.67
2023-05-16T04:13:19.784Z,23.13
2023-05-16T04:16:21.446Z,33.75
2023-05-16T04:19:23.299Z,28.63
2023-05-16T04:22:24.928Z,28.92
2023-05-16T04:25:26.980Z,26.73
2023-05-16T04:28:29.665Z,31.52
2023-05-16T04:31:31.541Z,23.00
2023-05-16T04:34:39.688Z,22.65
2023-05-16T04:37:42.365Z,32.58
2023-05-16T04:40:43.919Z,26.42
2023-05-16T04:43:45.632Z,26.88
2023-05-16T04:46:47.205Z,32.67
2023-05-16T04:49:48.860Z,28.00
2023-05-16T04:52:50.456Z,29.80
2023-05-16T04:55:52.905Z,30.45
2023-05-16T04:58:54.638Z,30.98
2023-05-16T05:01:56.242Z,25.30
2023-05-16T05:04:57.879Z,25.35
2023-05-16T05:08:00.910Z,26.65
2023-05-16T05:11:02.852Z,20.33
2023-05-16T05:14:04.535Z,25.92
2023-05-16T05:17:06.408Z,23.30
2023-05-16T05:20:08.619Z,22.45
2023-05-16T05:23:10.222Z,27.92
2023-05-16T05:26:12.080Z,31.63
2023-05-16T05:29:13.627Z,23.77
2023-05-16T05:32:15.286Z,24.65
2023-05-16T05:35:16.803Z,27.17
2023-05-16T05:38:18.355Z,22.45
2023-05-16T05:41:19.902Z,25.10
2023-05-16T05:44:21.453Z,20.98
2023-05-16T05:47:23.277Z,17.35
2023-05-16T05:50:24.926Z,25.98
2023-05-16T05:53:26.674Z,30.60
2023-05-16T05:56:28.392Z,27.95
2023-05-16T05:59:30.618Z,26.02
2023-05-16T06:02:32.432Z,28.60
2023-05-16T06:05:34.070Z,32.97
2023-05-16T06:08:35.705Z,29.40
2023-05-16T06:11:37.572Z,22.35
2023-05-16T06:14:39.706Z,23.65
2023-05-16T06:17:41.929Z,23.50
2023-05-16T06:20:43.505Z,23.80
2023-05-16T06:23:45.110Z,21.35
2023-05-16T06:26:49.915Z,23.20
2023-05-16T06:29:51.480Z,24.25
2023-05-16T06:32:53.135Z,21.08
2023-05-16T06:35:54.938Z,22.33
2023-05-16T06:38:56.524Z,20.63
2023-05-16T06:41:58.175Z,20.25
2023-05-16T06:44:59.814Z,22.73
2023-05-16T06:48:01.636Z,20.63
2023-05-16T06:51:03.601Z,19.38
2023-05-16T06:54:05.339Z,20.25
2023-05-16T06:57:08.432Z,22.10
2023-05-16T07:00:10.583Z,14.98
2023-05-16T07:03:13.768Z,25.98
2023-05-16T07:06:15.514Z,13.60
2023-05-16T07:09:17.121Z,15.35
2023-05-16T07:12:18.722Z,14.88
2023-05-16T07:15:20.525Z,16.20
2023-05-16T07:18:22.203Z,16.27
2023-05-16T07:21:23.772Z,16.92
2023-05-16T07:24:25.447Z,18.83
2023-05-16T07:27:28.028Z,14.07
2023-05-16T07:30:30.403Z,10.90
2023-05-16T07:33:32.071Z,11.18
2023-05-16T07:36:35.022Z,15.13
2023-05-16T07:39:36.597Z,14.50
2023-05-16T07:42:38.186Z,14.65
2023-05-16T07:45:40.122Z,12.48
2023-05-16T07:48:41.850Z,16.60
2023-05-16T07:51:43.639Z,15.63
2023-05-16T07:54:47.212Z,11.70
2023-05-16T07:57:50.591Z,13.80
2023-05-16T08:00:52.396Z,14.85
2023-05-16T08:03:54.124Z,11.90
2023-05-16T08:06:55.783Z,9.52
2023-05-16T08:09:57.361Z,9.18
2023-05-16T08:12:58.994Z,11.05
2023-05-16T08:16:00.660Z,13.98
2023-05-16T08:19:02.408Z,9.20
2023-05-16T08:22:06.782Z,13.55
2023-05-16T08:25:09.011Z,11.48
2023-05-16T08:28:13.472Z,10.15
2023-05-16T08:31:15.285Z,11.45
2023-05-16T08:34:16.906Z,9.35
2023-05-16T08:37:18.580Z,10.77
2023-05-16T08:40:22.234Z,11.75
2023-05-16T08:43:24.049Z,14.20
2023-05-16T08:46:27.718Z,9.00
2023-05-16T08:49:31.397Z,15.70
2023-05-16T08:52:33.458Z,8.48
2023-05-16T08:55:36.017Z,11.00
2023-05-16T08:58:38.295Z,10.13
2023-05-16T09:01:41.355Z,7.53
2023-05-16T09:04:45.648Z,10.75
2023-05-16T09:07:47.290Z,14.57
2023-05-16T09:10:48.902Z,14.95
2023-05-16T09:13:51.044Z,5.22
2023-05-16T09:17:09.659Z,7.75
2023-05-16T09:20:18.778Z,8.35
2023-05-16T09:23:25.437Z,8.70
2023-05-16T09:26:27.109Z,7.72
2023-05-16T09:29:29.254Z,7.85
2023-05-16T09:32:31.646Z,11.95
2023-05-16T09:38:38.077Z,6.90
2023-05-16T09:41:39.755Z,11.75
2023-05-16T09:44:42.099Z,10.13
2023-05-16T09:47:48.132Z,8.30
2023-05-16T09:50:54.149Z,9.43
2023-05-16T09:53:58.686Z,11.07
2023-05-16T09:57:02.814Z,5.60
2023-05-16T10:00:09.786Z,7.07
2023-05-16T10:03:12.320Z,11.65
2023-05-16T10:06:16.556Z,8.23
2023-05-16T10:09:18.963Z,8.60
2023-05-16T10:12:27.670Z,7.20
2023-05-16T10:15:30.151Z,9.30
2023-05-16T10:18:34.380Z,13.73
2023-05-16T10:21:38.577Z,11.63
2023-05-16T10:24:55.049Z,11.73
2023-05-16T10:27:57.648Z,6.82
2023-05-16T10:31:01.518Z,14.00
2023-05-16T10:34:03.989Z,17.58
2023-05-16T10:37:06.374Z,10.85
2023-05-16T10:40:09.684Z,19.10
2023-05-16T10:43:22.263Z,8.18
2023-05-16T10:46:25.023Z,6.68
2023-05-16T10:49:27.759Z,10.57
2023-05-16T10:52:35.576Z,9.57
2023-05-16T10:55:39.345Z,5.15
2023-05-16T10:58:42.519Z,10.43
2023-05-16T11:01:44.177Z,10.73
2023-05-16T11:04:48.237Z,10.63
2023-05-16T11:08:04.802Z,6.78
2023-05-16T11:11:41.854Z,8.57
2023-05-16T11:14:45.041Z,10.75
2023-05-16T11:17:47.437Z,13.27
2023-05-16T11:20:52.998Z,5.82
2023-05-16T11:24:29.897Z,4.80
2023-05-16T11:27:36.399Z,6.93
2023-05-16T11:30:43.440Z,4.90
2023-05-16T11:33:48.182Z,9.65
2023-05-16T11:36:49.914Z,6.38
2023-05-16T11:39:51.764Z,4.32
2023-05-16T11:42:53.378Z,4.68
2023-05-16T11:45:56.036Z,5.43
2023-05-16T11:48:57.728Z,4.47
2023-05-16T11:51:59.616Z,4.50
2023-05-16T11:55:01.495Z,4.60
2023-05-16T11:58:03.112Z,2.60
2023-05-16T12:01:05.513Z,4.45
2023-05-16T12:04:14.615Z,3.08
2023-05-16T12:07:16.512Z,4.43
2023-05-16T12:10:18.357Z,8.85
2023-05-16T12:13:22.821Z,6.50
2023-05-16T12:16:24.676Z,3.97
2023-05-16T12:19:26.725Z,4.57
2023-05-16T12:22:28.795Z,6.63
2023-05-16T12:25:32.439Z,5.70
2023-05-16T12:28:36.130Z,6.50
2023-05-16T12:31:40.353Z,6.47
2023-05-16T12:34:52.722Z,4.85
2023-05-16T12:37:54.543Z,4.00
2023-05-16T12:40:59.442Z,4.10
2023-05-16T12:44:30.065Z,5.82
2023-05-16T12:50:42.392Z,7.43
2023-05-16T12:54:05.549Z,5.20
2023-05-16T12:57:11.124Z,6.22
2023-05-16T13:00:14.136Z,7.03
2023-05-16T13:03:16.206Z,9.13
2023-05-16T13:06:18.490Z,4.00
2023-05-16T13:09:20.116Z,5.60
2023-05-16T13:12:26.755Z,6.60
2023-05-16T13:15:28.895Z,2.88
2023-05-16T13:18:31.376Z,7.80
2023-05-16T13:21:33.236Z,6.57
2023-05-16T13:24:34.902Z,4.30
2023-05-16T13:27:36.767Z,7.07
2023-05-16T13:30:38.365Z,14.30
2023-05-16T13:33:39.966Z,6.07
2023-05-16T13:36:53.177Z,6.75
2023-05-16T13:39:56.099Z,5.53
2023-05-16T13:42:57.745Z,6.75
2023-05-16T13:45:59.446Z,4.63
2023-05-16T13:49:02.016Z,7.35
2023-05-16T13:52:03.840Z,8.40
2023-05-16T13:55:06.369Z,7.50
2023-05-16T13:58:07.961Z,6.22
2023-05-16T14:01:09.644Z,5.72
2023-05-16T14:04:11.361Z,6.95
2023-05-16T14:07:12.981Z,6.93
2023-05-16T14:10:14.704Z,7.60
2023-05-16T14:13:16.276Z,7.50
2023-05-16T14:16:18.024Z,8.50
2023-05-16T14:19:19.923Z,10.93
2023-05-16T14:22:21.599Z,4.97
2023-05-16T14:25:23.357Z,8.55
2023-05-16T14:28:24.966Z,6.78
2023-05-16T14:31:26.737Z,6.05
2023-05-16T14:34:28.442Z,8.13
2023-05-16T14:37:30.438Z,9.85
2023-05-16T14:40:32.007Z,7.38
2023-05-16T14:43:33.612Z,11.60
2023-05-16T14:46:35.399Z,9.50
2023-05-16T14:49:37.065Z,8.27
2023-05-16T14:52:40.641Z,8.27
2023-05-16T14:55:42.336Z,9.02
2023-05-16T14:59:21.206Z,10.82
2023-05-16T15:02:22.803Z,4.88
2023-05-16T15:05:25.608Z,7.63
2023-05-16T15:08:27.296Z,8.63
2023-05-16T15:11:29.213Z,6.43
2023-05-16T15:14:30.785Z,8.70
2023-05-16T15:17:32.456Z,6.13
2023-05-16T15:20:34.276Z,7.03
2023-05-16T15:23:36.822Z,8.70
2023-05-16T15:26:39.594Z,9.20
2023-05-16T15:29:41.221Z,8.68
2023-05-16T15:32:42.876Z,11.60
2023-05-16T15:35:44.473Z,9.13
2023-05-16T15:38:47.591Z,10.25
2023-05-16T15:42:08.495Z,9.68
2023-05-16T15:45:12.356Z,10.85
2023-05-16T15:48:13.953Z,6.60
2023-05-16T15:51:16.399Z,9.07
2023-05-16T15:54:17.980Z,13.32
2023-05-16T15:57:19.663Z,11.05
2023-05-16T16:00:21.278Z,7.93
2023-05-16T16:03:23.046Z,10.15
2023-05-16T16:06:24.697Z,7.53
2023-05-16T16:09:26.432Z,8.93
2023-05-16T16:12:31.199Z,10.40
2023-05-16T16:15:33.861Z,8.68
2023-05-16T16:18:35.756Z,11.00
2023-05-16T16:21:37.505Z,10.82
2023-05-16T16:24:39.111Z,6.70
2023-05-16T16:27:41.114Z,9.15
2023-05-16T16:30:44.797Z,8.45
2023-05-16T16:33:49.008Z,10.18
2023-05-16T16:36:50.671Z,6.88
2023-05-16T16:39:52.397Z,10.10
2023-05-16T16:42:54.026Z,9.32
2023-05-16T16:45:55.694Z,5.28
2023-05-16T16:48:57.388Z,10.65
2023-05-16T16:51:59.014Z,8.13
2023-05-16T16:55:00.807Z,9.43
2023-05-16T16:58:02.378Z,10.15
2023-05-16T17:01:04.291Z,14.10
2023-05-16T17:04:06.606Z,10.45
2023-05-16T17:07:08.443Z,8.27
2023-05-16T17:10:10.471Z,13.20
2023-05-16T17:13:14.178Z,10.98
2023-05-16T17:16:16.340Z,9.90
2023-05-16T17:19:18.195Z,11.65
2023-05-16T17:22:22.295Z,6.68
2023-05-16T17:25:23.919Z,12.57
2023-05-16T17:28:25.989Z,8.50
2023-05-16T17:31:28.052Z,9.85
2023-05-16T17:34:29.849Z,11.32
2023-05-16T17:37:32.477Z,7.85
2023-05-16T17:40:34.180Z,7.68
2023-05-16T17:43:35.876Z,8.80
2023-05-16T17:46:38.331Z,9.43
2023-05-16T17:49:40.276Z,10.70
2023-05-16T17:52:42.029Z,9.30
2023-05-16T17:55:43.634Z,10.90
2023-05-16T17:58:46.021Z,6.80
2023-05-16T18:01:48.104Z,8.07
2023-05-16T18:04:49.796Z,10.13
2023-05-16T18:07:51.708Z,9.77
2023-05-16T18:10:53.282Z,10.90
2023-05-16T18:13:55.305Z,9.27
2023-05-16T18:16:57.071Z,8.63
2023-05-16T18:19:58.866Z,6.00
2023-05-16T18:23:02.450Z,9.27
2023-05-16T18:26:04.169Z,17.98
2023-05-16T18:29:05.791Z,8.15
2023-05-16T18:32:07.794Z,12.30
2023-05-16T18:35:09.662Z,6.78
2023-05-16T18:38:20.182Z,10.52
2023-05-16T18:41:26.898Z,5.03
2023-05-16T18:44:28.786Z,6.20
2023-05-16T18:47:30.767Z,7.70
2023-05-16T18:50:32.534Z,8.18
2023-05-16T18:53:36.552Z,7.88
2023-05-16T18:56:38.260Z,8.07
2023-05-16T18:59:39.912Z,8.50
2023-05-16T19:02:42.818Z,6.63
2023-05-16T19:05:45.048Z,6.82
2023-05-16T19:08:47.979Z,6.25
2023-05-16T19:11:50.668Z,6.13
2023-05-16T19:14:52.315Z,6.75
2023-05-16T19:17:54.023Z,7.22
2023-05-16T19:20:55.958Z,6.78
2023-05-16T19:23:57.550Z,7.07
2023-05-16T19:26:59.156Z,7.25
2023-05-16T19:30:00.782Z,10.05
2023-05-16T19:33:02.497Z,7.90
2023-05-16T19:36:07.785Z,12.00
2023-05-16T19:39:09.608Z,9.63
2023-05-16T19:42:11.433Z,6.20
2023-05-16T19:45:13.041Z,9.05
2023-05-16T19:48:14.867Z,7.00
2023-05-16T19:51:23.788Z,5.80
2023-05-16T19:54:31.568Z,7.63
2023-05-16T19:57:33.260Z,12.52
2023-05-16T20:00:34.849Z,8.73
2023-05-16T20:03:36.940Z,6.45
2023-05-16T20:06:38.779Z,8.00
2023-05-16T20:09:40.631Z,8.35
2023-05-16T20:12:42.807Z,7.28
2023-05-16T20:15:44.486Z,11.98
2023-05-16T20:18:46.591Z,8.57
2023-05-16T20:21:48.373Z,10.05
2023-05-16T20:24:50.167Z,8.38
2023-05-16T20:27:51.761Z,8.20
2023-05-16T20:30:53.410Z,11.95
2023-05-16T20:33:55.147Z,14.80
2023-05-16T20:36:57.433Z,10.77
2023-05-16T20:39:59.027Z,8.32
2023-05-16T20:43:00.657Z,6.82
2023-05-16T20:46:02.440Z,8.10
2023-05-16T20:49:04.189Z,7.13
2023-05-16T20:52:06.741Z,10.30
2023-05-16T20:55:08.625Z,5.63
2023-05-16T20:58:11.425Z,6.88
2023-05-16T21:01:13.109Z,9.18
2023-05-16T21:04:14.792Z,8.10
2023-05-16T21:07:16.410Z,8.75
2023-05-16T21:10:18.311Z,8.50
2023-05-16T21:13:20.785Z,8.48
2023-05-16T21:16:22.704Z,7.72
2023-05-16T21:19:24.420Z,10.27
2023-05-16T21:22:28.260Z,9.52
2023-05-16T21:25:30.068Z,5.57
2023-05-16T21:28:34.804Z,5.82
2023-05-16T21:31:43.243Z,6.85
2023-05-16T21:34:44.988Z,10.80
2023-05-16T21:37:46.638Z,6.53
2023-05-16T21:40:48.545Z,11.45
2023-05-16T21:43:50.154Z,8.68
2023-05-16T21:46:55.054Z,8.45
2023-05-16T21:49:59.240Z,7.38
2023-05-16T21:53:01.157Z,9.55
2023-05-16T21:56:03.088Z,5.35
2023-05-16T21:59:04.746Z,12.90
2023-05-16T22:02:07.682Z,9.57
2023-05-16T22:05:09.858Z,10.85
2023-05-16T22:08:11.707Z,5.75
2023-05-16T22:11:13.912Z,7.20
2023-05-16T22:14:15.722Z,8.02
2023-05-16T22:17:19.356Z,5.25
2023-05-16T22:20:23.736Z,7.00
2023-05-16T22:23:25.573Z,6.05
2023-05-16T22:26:27.248Z,8.93
2023-05-16T22:29:38.071Z,7.80
2023-05-16T22:32:39.921Z,7.55
2023-05-16T22:35:41.656Z,5.47
2023-05-16T22:38:43.250Z,6.55
2023-05-16T22:41:44.923Z,7.18
2023-05-16T22:44:46.692Z,5.53
2023-05-16T22:47:48.390Z,7.05
2023-05-16T22:50:50.306Z,7.18
2023-05-16T22:53:54.090Z,10.43
2023-05-16T22:56:56.006Z,8.27
2023-05-16T22:59:57.651Z,6.40
2023-05-16T23:02:59.554Z,9.13
2023-05-16T23:06:01.366Z,10.15
2023-05-16T23:09:04.580Z,7.18
2023-05-16T23:12:06.642Z,8.45
2023-05-16T23:15:10.217Z,9.00
2023-05-16T23:18:12.659Z,10.85
2023-05-16T23:21:14.332Z,15.32
2023-05-16T23:24:16.108Z,9.85
2023-05-16T23:27:17.757Z,9.75
2023-05-16T23:30:19.488Z,9.15
2023-05-16T23:33:21.194Z,13.07
2023-05-16T23:36:22.918Z,7.88
2023-05-16T23:39:25.187Z,10.18
2023-05-16T23:42:26.795Z,9.23
2023-05-16T23:45:30.238Z,9.38
2023-05-16T23:48:32.154Z,7.72
2023-05-16T23:51:52.331Z,10.48
2023-05-16T23:54:55.443Z,8.15
2023-05-16T23:57:57.071Z,9.13
